sensor_id;sensor_type;location;lat;lon;timestamp;temperature;humidity
2687;DHT22;1353;51.386;7.028;2022-09-02T00:02:07;15.10;99.90
2687;DHT22;1353;51.386;7.028;2022-09-02T00:04:34;14.90;99.90
2687;DHT22;1353;51.386;7.028;2022-09-02T00:07:02;15.00;99.90
2687;DHT22;1353;51.386;7.028;2022-09-02T00:09:29;15.00;99.90
2687;DHT22;1353;51.386;7.028;2022-09-02T00:11:56;15.00;99.90
2687;DHT22;1353;51.386;7.028;2022-09-02T00:14:25;14.90;99.90
2687;DHT22;1353;51.386;7.028;2022-09-02T00:16:52;14.90;99.90
2687;DHT22;1353;51.386;7.028;2022-09-02T00:19:21;14.90;99.90
2687;DHT22;1353;51.386;7.028;2022-09-02T00:21:49;14.80;99.90
2687;DHT22;1353;51.386;7.028;2022-09-02T00:24:17;14.90;99.90
2687;DHT22;1353;51.386;7.028;2022-09-02T00:26:44;14.80;99.90
2687;DHT22;1353;51.386;7.028;2022-09-02T00:29:12;14.70;99.90
2687;DHT22;1353;51.386;7.028;2022-09-02T00:31:40;14.80;99.90
2687;DHT22;1353;51.386;7.028;2022-09-02T00:34:07;14.80;99.90
2687;DHT22;1353;51.386;7.028;2022-09-02T00:36:35;14.70;99.90
2687;DHT22;1353;51.386;7.028;2022-09-02T00:39:03;14.80;99.90
2687;DHT22;1353;51.386;7.028;2022-09-02T00:41:34;14.70;99.90
2687;DHT22;1353;51.386;7.028;2022-09-02T00:44:04;14.60;99.90
2687;DHT22;1353;51.386;7.028;2022-09-02T00:46:32;14.70;99.90
2687;DHT22;1353;51.386;7.028;2022-09-02T00:49:03;14.50;99.90
2687;DHT22;1353;51.386;7.028;2022-09-02T00:51:35;14.50;99.90
2687;DHT22;1353;51.386;7.028;2022-09-02T00:54:03;14.60;99.90
2687;DHT22;1353;51.386;7.028;2022-09-02T00:56:33;14.40;99.90
2687;DHT22;1353;51.386;7.028;2022-09-02T00:59:02;14.30;99.90
2687;DHT22;1353;51.386;7.028;2022-09-02T01:01:29;14.50;99.90
2687;DHT22;1353;51.386;7.028;2022-09-02T01:03:56;14.40;99.90
2687;DHT22;1353;51.386;7.028;2022-09-02T01:06:24;14.40;99.90
2687;DHT22;1353;51.386;7.028;2022-09-02T01:08:56;14.40;99.90
2687;DHT22;1353;51.386;7.028;2022-09-02T01:11:27;14.50;99.90
2687;DHT22;1353;51.386;7.028;2022-09-02T01:13:57;14.60;99.90
2687;DHT22;1353;51.386;7.028;2022-09-02T01:16:30;14.50;99.90
2687;DHT22;1353;51.386;7.028;2022-09-02T01:19:01;14.60;99.90
2687;DHT22;1353;51.386;7.028;2022-09-02T01:21:28;14.50;99.90
2687;DHT22;1353;51.386;7.028;2022-09-02T01:23:56;14.70;99.90
2687;DHT22;1353;51.386;7.028;2022-09-02T01:26:23;14.60;99.90
2687;DHT22;1353;51.386;7.028;2022-09-02T01:28:50;14.60;99.90
2687;DHT22;1353;51.386;7.028;2022-09-02T01:31:17;14.40;99.90
2687;DHT22;1353;51.386;7.028;2022-09-02T01:33:44;14.60;99.90
2687;DHT22;1353;51.386;7.028;2022-09-02T01:36:10;14.70;99.90
2687;DHT22;1353;51.386;7.028;2022-09-02T01:38:38;14.80;99.90
2687;DHT22;1353;51.386;7.028;2022-09-02T01:41:06;14.80;99.90
2687;DHT22;1353;51.386;7.028;2022-09-02T01:43:33;14.70;99.90
2687;DHT22;1353;51.386;7.028;2022-09-02T01:46:00;14.60;99.90
2687;DHT22;1353;51.386;7.028;2022-09-02T01:48:27;14.50;99.90
2687;DHT22;1353;51.386;7.028;2022-09-02T01:50:57;14.40;99.90
2687;DHT22;1353;51.386;7.028;2022-09-02T01:53:24;14.40;99.90
2687;DHT22;1353;51.386;7.028;2022-09-02T01:55:51;14.30;99.90
2687;DHT22;1353;51.386;7.028;2022-09-02T01:58:20;14.50;99.90
2687;DHT22;1353;51.386;7.028;2022-09-02T02:00:47;14.50;99.90
2687;DHT22;1353;51.386;7.028;2022-09-02T02:03:14;14.50;99.90
2687;DHT22;1353;51.386;7.028;2022-09-02T02:05:41;14.40;99.90
2687;DHT22;1353;51.386;7.028;2022-09-02T02:08:08;14.40;99.90
2687;DHT22;1353;51.386;7.028;2022-09-02T02:10:35;14.40;99.90
2687;DHT22;1353;51.386;7.028;2022-09-02T02:13:02;14.30;99.90
2687;DHT22;1353;51.386;7.028;2022-09-02T02:15:30;14.40;99.90
2687;DHT22;1353;51.386;7.028;2022-09-02T02:17:57;14.40;99.90
2687;DHT22;1353;51.386;7.028;2022-09-02T02:20:24;14.60;99.90
2687;DHT22;1353;51.386;7.028;2022-09-02T02:22:51;14.60;99.90
2687;DHT22;1353;51.386;7.028;2022-09-02T02:25:19;14.70;99.90
2687;DHT22;1353;51.386;7.028;2022-09-02T02:27:45;14.60;99.90
2687;DHT22;1353;51.386;7.028;2022-09-02T02:30:15;14.50;99.90
2687;DHT22;1353;51.386;7.028;2022-09-02T02:32:44;14.70;99.90
2687;DHT22;1353;51.386;7.028;2022-09-02T02:35:13;14.60;99.90
2687;DHT22;1353;51.386;7.028;2022-09-02T02:37:40;14.80;99.90
2687;DHT22;1353;51.386;7.028;2022-09-02T02:40:08;14.80;99.90
2687;DHT22;1353;51.386;7.028;2022-09-02T02:42:36;14.80;99.90
2687;DHT22;1353;51.386;7.028;2022-09-02T02:45:05;14.80;99.90
2687;DHT22;1353;51.386;7.028;2022-09-02T02:47:36;14.70;99.90
2687;DHT22;1353;51.386;7.028;2022-09-02T02:50:06;14.70;99.90
2687;DHT22;1353;51.386;7.028;2022-09-02T02:52:35;14.60;99.90
2687;DHT22;1353;51.386;7.028;2022-09-02T02:55:02;14.70;99.90
2687;DHT22;1353;51.386;7.028;2022-09-02T02:57:29;14.60;99.90
2687;DHT22;1353;51.386;7.028;2022-09-02T02:59:56;14.60;99.90
2687;DHT22;1353;51.386;7.028;2022-09-02T03:02:22;14.50;99.90
2687;DHT22;1353;51.386;7.028;2022-09-02T03:04:49;14.30;99.90
2687;DHT22;1353;51.386;7.028;2022-09-02T03:07:20;14.40;99.90
2687;DHT22;1353;51.386;7.028;2022-09-02T03:09:46;14.40;99.90
2687;DHT22;1353;51.386;7.028;2022-09-02T03:12:13;14.20;99.90
2687;DHT22;1353;51.386;7.028;2022-09-02T03:14:41;14.00;99.90
2687;DHT22;1353;51.386;7.028;2022-09-02T03:17:08;14.10;99.90
2687;DHT22;1353;51.386;7.028;2022-09-02T03:19:35;14.10;99.90
2687;DHT22;1353;51.386;7.028;2022-09-02T03:22:02;14.00;99.90
2687;DHT22;1353;51.386;7.028;2022-09-02T03:24:31;14.00;99.90
2687;DHT22;1353;51.386;7.028;2022-09-02T03:26:58;13.90;99.90
2687;DHT22;1353;51.386;7.028;2022-09-02T03:29:24;13.90;99.90
2687;DHT22;1353;51.386;7.028;2022-09-02T03:31:52;13.80;99.90
2687;DHT22;1353;51.386;7.028;2022-09-02T03:34:19;13.80;99.90
2687;DHT22;1353;51.386;7.028;2022-09-02T03:36:46;13.80;99.90
2687;DHT22;1353;51.386;7.028;2022-09-02T03:39:13;13.80;99.90
2687;DHT22;1353;51.386;7.028;2022-09-02T03:41:41;13.70;99.90
2687;DHT22;1353;51.386;7.028;2022-09-02T03:44:08;13.60;99.90
2687;DHT22;1353;51.386;7.028;2022-09-02T03:46:36;13.70;99.90
2687;DHT22;1353;51.386;7.028;2022-09-02T03:49:03;13.60;99.90
2687;DHT22;1353;51.386;7.028;2022-09-02T03:51:29;13.70;99.90
2687;DHT22;1353;51.386;7.028;2022-09-02T03:53:57;13.60;99.90
2687;DHT22;1353;51.386;7.028;2022-09-02T03:56:24;13.50;99.90
2687;DHT22;1353;51.386;7.028;2022-09-02T03:58:52;13.50;99.90
2687;DHT22;1353;51.386;7.028;2022-09-02T04:01:22;13.50;99.90
2687;DHT22;1353;51.386;7.028;2022-09-02T04:03:49;13.50;99.90
2687;DHT22;1353;51.386;7.028;2022-09-02T04:06:18;13.50;99.90
2687;DHT22;1353;51.386;7.028;2022-09-02T04:08:47;13.50;99.90
2687;DHT22;1353;51.386;7.028;2022-09-02T04:11:16;13.50;99.90
2687;DHT22;1353;51.386;7.028;2022-09-02T04:13:43;13.30;99.90
2687;DHT22;1353;51.386;7.028;2022-09-02T04:16:13;13.20;99.90
2687;DHT22;1353;51.386;7.028;2022-09-02T04:18:40;13.10;99.90
2687;DHT22;1353;51.386;7.028;2022-09-02T04:21:08;13.10;99.90
2687;DHT22;1353;51.386;7.028;2022-09-02T04:23:35;13.30;99.90
2687;DHT22;1353;51.386;7.028;2022-09-02T04:26:04;13.10;99.90
2687;DHT22;1353;51.386;7.028;2022-09-02T04:28:32;13.10;99.90
2687;DHT22;1353;51.386;7.028;2022-09-02T04:30:59;12.90;99.90
2687;DHT22;1353;51.386;7.028;2022-09-02T04:33:30;13.00;99.90
2687;DHT22;1353;51.386;7.028;2022-09-02T04:35:56;12.90;99.90
2687;DHT22;1353;51.386;7.028;2022-09-02T04:38:23;12.80;99.90
2687;DHT22;1353;51.386;7.028;2022-09-02T04:40:50;12.80;99.90
2687;DHT22;1353;51.386;7.028;2022-09-02T04:43:17;12.70;99.90
2687;DHT22;1353;51.386;7.028;2022-09-02T04:45:45;13.60;99.90
2687;DHT22;1353;51.386;7.028;2022-09-02T04:48:12;14.70;99.90
2687;DHT22;1353;51.386;7.028;2022-09-02T04:50:41;14.90;99.90
2687;DHT22;1353;51.386;7.028;2022-09-02T04:53:08;15.40;99.90
2687;DHT22;1353;51.386;7.028;2022-09-02T04:55:37;16.50;99.90
2687;DHT22;1353;51.386;7.028;2022-09-02T04:58:04;17.40;99.90
2687;DHT22;1353;51.386;7.028;2022-09-02T05:00:31;17.50;99.90
2687;DHT22;1353;51.386;7.028;2022-09-02T05:02:57;16.60;99.90
2687;DHT22;1353;51.386;7.028;2022-09-02T05:05:24;16.90;99.90
2687;DHT22;1353;51.386;7.028;2022-09-02T05:07:52;15.20;99.90
2687;DHT22;1353;51.386;7.028;2022-09-02T05:10:20;14.10;99.90
2687;DHT22;1353;51.386;7.028;2022-09-02T05:12:47;13.80;99.90
2687;DHT22;1353;51.386;7.028;2022-09-02T05:15:14;14.30;99.90
2687;DHT22;1353;51.386;7.028;2022-09-02T05:17:41;14.40;99.90
2687;DHT22;1353;51.386;7.028;2022-09-02T05:20:08;14.10;99.90
2687;DHT22;1353;51.386;7.028;2022-09-02T05:22:36;15.80;99.90
2687;DHT22;1353;51.386;7.028;2022-09-02T05:25:05;15.70;99.90
2687;DHT22;1353;51.386;7.028;2022-09-02T05:27:34;14.90;99.90
2687;DHT22;1353;51.386;7.028;2022-09-02T05:30:02;14.20;99.90
2687;DHT22;1353;51.386;7.028;2022-09-02T05:32:48;14.20;99.90
2687;DHT22;1353;51.386;7.028;2022-09-02T05:35:15;13.90;99.90
2687;DHT22;1353;51.386;7.028;2022-09-02T05:37:42;13.80;99.90
2687;DHT22;1353;51.386;7.028;2022-09-02T05:40:10;13.70;99.90
2687;DHT22;1353;51.386;7.028;2022-09-02T05:42:37;13.80;99.90
2687;DHT22;1353;51.386;7.028;2022-09-02T05:45:05;13.70;99.90
2687;DHT22;1353;51.386;7.028;2022-09-02T05:47:33;13.80;99.90
2687;DHT22;1353;51.386;7.028;2022-09-02T05:50:00;14.60;99.90
2687;DHT22;1353;51.386;7.028;2022-09-02T05:52:27;15.40;99.90
2687;DHT22;1353;51.386;7.028;2022-09-02T05:54:55;15.80;99.90
2687;DHT22;1353;51.386;7.028;2022-09-02T05:57:23;15.80;99.90
2687;DHT22;1353;51.386;7.028;2022-09-02T05:59:50;16.70;99.90
2687;DHT22;1353;51.386;7.028;2022-09-02T06:02:22;16.70;99.90
2687;DHT22;1353;51.386;7.028;2022-09-02T06:04:51;16.50;99.90
2687;DHT22;1353;51.386;7.028;2022-09-02T06:07:20;17.40;99.90
2687;DHT22;1353;51.386;7.028;2022-09-02T06:09:48;17.30;99.90
2687;DHT22;1353;51.386;7.028;2022-09-02T06:12:16;17.80;99.90
2687;DHT22;1353;51.386;7.028;2022-09-02T06:14:46;18.20;99.90
2687;DHT22;1353;51.386;7.028;2022-09-02T06:17:13;18.90;99.90
2687;DHT22;1353;51.386;7.028;2022-09-02T06:19:40;19.70;99.90
2687;DHT22;1353;51.386;7.028;2022-09-02T06:22:07;18.70;99.90
2687;DHT22;1353;51.386;7.028;2022-09-02T06:24:34;16.90;99.90
2687;DHT22;1353;51.386;7.028;2022-09-02T06:27:00;17.10;99.90
2687;DHT22;1353;51.386;7.028;2022-09-02T06:29:27;16.90;99.90
2687;DHT22;1353;51.386;7.028;2022-09-02T06:31:55;16.80;99.90
2687;DHT22;1353;51.386;7.028;2022-09-02T06:34:23;16.50;99.90
2687;DHT22;1353;51.386;7.028;2022-09-02T06:36:52;17.00;99.90
2687;DHT22;1353;51.386;7.028;2022-09-02T06:39:20;16.50;99.90
2687;DHT22;1353;51.386;7.028;2022-09-02T06:41:48;16.40;99.90
2687;DHT22;1353;51.386;7.028;2022-09-02T06:44:16;16.30;99.90
2687;DHT22;1353;51.386;7.028;2022-09-02T06:46:45;16.40;99.90
2687;DHT22;1353;51.386;7.028;2022-09-02T06:49:15;16.30;99.90
2687;DHT22;1353;51.386;7.028;2022-09-02T06:51:44;16.70;99.90
2687;DHT22;1353;51.386;7.028;2022-09-02T06:54:13;16.40;99.90
2687;DHT22;1353;51.386;7.028;2022-09-02T06:56:41;16.50;99.90
2687;DHT22;1353;51.386;7.028;2022-09-02T06:59:08;16.30;99.90
2687;DHT22;1353;51.386;7.028;2022-09-02T07:01:36;16.40;99.90
2687;DHT22;1353;51.386;7.028;2022-09-02T07:04:03;16.60;99.90
2687;DHT22;1353;51.386;7.028;2022-09-02T07:06:57;16.70;99.90
2687;DHT22;1353;51.386;7.028;2022-09-02T07:09:25;17.10;99.90
2687;DHT22;1353;51.386;7.028;2022-09-02T07:11:56;17.00;99.90
2687;DHT22;1353;51.386;7.028;2022-09-02T07:14:24;17.90;99.90
2687;DHT22;1353;51.386;7.028;2022-09-02T07:16:53;19.30;99.90
2687;DHT22;1353;51.386;7.028;2022-09-02T07:19:22;18.60;99.90
2687;DHT22;1353;51.386;7.028;2022-09-02T07:21:49;19.20;99.90
2687;DHT22;1353;51.386;7.028;2022-09-02T07:24:17;18.00;99.90
2687;DHT22;1353;51.386;7.028;2022-09-02T07:26:45;20.10;99.90
2687;DHT22;1353;51.386;7.028;2022-09-02T07:29:12;20.10;98.90
2687;DHT22;1353;51.386;7.028;2022-09-02T07:31:41;19.90;99.90
2687;DHT22;1353;51.386;7.028;2022-09-02T07:34:08;19.60;99.90
2687;DHT22;1353;51.386;7.028;2022-09-02T07:36:36;19.60;99.90
2687;DHT22;1353;51.386;7.028;2022-09-02T07:39:05;19.10;99.90
2687;DHT22;1353;51.386;7.028;2022-09-02T07:41:34;20.00;99.90
2687;DHT22;1353;51.386;7.028;2022-09-02T07:44:02;19.70;99.90
2687;DHT22;1353;51.386;7.028;2022-09-02T07:46:29;18.40;99.90
2687;DHT22;1353;51.386;7.028;2022-09-02T07:48:56;18.50;99.90
2687;DHT22;1353;51.386;7.028;2022-09-02T07:51:23;18.70;99.90
2687;DHT22;1353;51.386;7.028;2022-09-02T07:53:50;19.10;99.90
2687;DHT22;1353;51.386;7.028;2022-09-02T07:56:17;21.20;99.90
2687;DHT22;1353;51.386;7.028;2022-09-02T07:58:45;20.80;99.70
2687;DHT22;1353;51.386;7.028;2022-09-02T08:01:13;20.30;99.90
2687;DHT22;1353;51.386;7.028;2022-09-02T08:03:40;20.30;99.90
2687;DHT22;1353;51.386;7.028;2022-09-02T08:06:07;20.00;99.90
2687;DHT22;1353;51.386;7.028;2022-09-02T08:08:34;20.40;99.90
2687;DHT22;1353;51.386;7.028;2022-09-02T08:11:01;21.50;97.50
2687;DHT22;1353;51.386;7.028;2022-09-02T08:13:29;21.30;94.30
2687;DHT22;1353;51.386;7.028;2022-09-02T08:15:57;23.60;83.40
2687;DHT22;1353;51.386;7.028;2022-09-02T08:18:24;26.30;63.30
2687;DHT22;1353;51.386;7.028;2022-09-02T08:20:50;26.20;57.20
2687;DHT22;1353;51.386;7.028;2022-09-02T08:23:17;24.90;54.60
2687;DHT22;1353;51.386;7.028;2022-09-02T08:25:44;24.60;55.50
2687;DHT22;1353;51.386;7.028;2022-09-02T08:28:11;27.00;51.40
2687;DHT22;1353;51.386;7.028;2022-09-02T08:30:38;26.10;49.80
2687;DHT22;1353;51.386;7.028;2022-09-02T08:33:06;25.40;51.10
2687;DHT22;1353;51.386;7.028;2022-09-02T08:35:33;25.00;47.40
2687;DHT22;1353;51.386;7.028;2022-09-02T08:38:00;25.40;46.70
2687;DHT22;1353;51.386;7.028;2022-09-02T08:40:33;28.30;44.50
2687;DHT22;1353;51.386;7.028;2022-09-02T08:43:01;26.50;43.90
2687;DHT22;1353;51.386;7.028;2022-09-02T08:45:32;24.40;48.90
2687;DHT22;1353;51.386;7.028;2022-09-02T08:48:07;24.60;47.70
2687;DHT22;1353;51.386;7.028;2022-09-02T08:50:38;23.60;53.30
2687;DHT22;1353;51.386;7.028;2022-09-02T08:53:09;23.60;55.10
2687;DHT22;1353;51.386;7.028;2022-09-02T08:55:45;23.00;57.20
2687;DHT22;1353;51.386;7.028;2022-09-02T08:58:16;22.50;58.50
2687;DHT22;1353;51.386;7.028;2022-09-02T09:00:47;23.60;59.10
2687;DHT22;1353;51.386;7.028;2022-09-02T09:03:24;23.60;56.60
2687;DHT22;1353;51.386;7.028;2022-09-02T09:05:58;23.00;58.20
2687;DHT22;1353;51.386;7.028;2022-09-02T09:08:32;24.50;54.60
2687;DHT22;1353;51.386;7.028;2022-09-02T09:11:08;25.20;47.80
2687;DHT22;1353;51.386;7.028;2022-09-02T09:14:00;25.40;50.60
2687;DHT22;1353;51.386;7.028;2022-09-02T09:16:34;26.80;44.80
2687;DHT22;1353;51.386;7.028;2022-09-02T09:19:10;25.80;44.20
2687;DHT22;1353;51.386;7.028;2022-09-02T09:21:37;24.30;49.00
2687;DHT22;1353;51.386;7.028;2022-09-02T09:24:16;23.80;56.90
2687;DHT22;1353;51.386;7.028;2022-09-02T09:26:44;24.90;53.50
2687;DHT22;1353;51.386;7.028;2022-09-02T09:29:12;24.70;50.00
2687;DHT22;1353;51.386;7.028;2022-09-02T09:31:39;26.80;46.60
2687;DHT22;1353;51.386;7.028;2022-09-02T09:34:11;27.50;41.70
2687;DHT22;1353;51.386;7.028;2022-09-02T09:36:49;26.10;41.10
2687;DHT22;1353;51.386;7.028;2022-09-02T09:39:21;24.90;39.00
2687;DHT22;1353;51.386;7.028;2022-09-02T09:41:49;24.20;37.90
2687;DHT22;1353;51.386;7.028;2022-09-02T09:44:41;24.80;39.00
2687;DHT22;1353;51.386;7.028;2022-09-02T09:47:16;25.40;35.70
2687;DHT22;1353;51.386;7.028;2022-09-02T09:49:51;25.80;35.10
2687;DHT22;1353;51.386;7.028;2022-09-02T09:52:24;25.50;37.20
2687;DHT22;1353;51.386;7.028;2022-09-02T09:55:10;25.70;34.90
2687;DHT22;1353;51.386;7.028;2022-09-02T09:57:37;26.50;33.80
2687;DHT22;1353;51.386;7.028;2022-09-02T10:00:14;25.10;35.70
2687;DHT22;1353;51.386;7.028;2022-09-02T10:02:48;27.10;33.10
2687;DHT22;1353;51.386;7.028;2022-09-02T10:05:26;25.80;30.70
2687;DHT22;1353;51.386;7.028;2022-09-02T10:07:56;25.30;28.80
2687;DHT22;1353;51.386;7.028;2022-09-02T10:10:25;26.70;25.90
2687;DHT22;1353;51.386;7.028;2022-09-02T10:12:55;25.60;26.90
2687;DHT22;1353;51.386;7.028;2022-09-02T10:15:35;25.20;27.50
2687;DHT22;1353;51.386;7.028;2022-09-02T10:18:14;23.90;30.80
2687;DHT22;1353;51.386;7.028;2022-09-02T10:20:51;24.00;31.10
2687;DHT22;1353;51.386;7.028;2022-09-02T10:23:30;23.60;32.50
2687;DHT22;1353;51.386;7.028;2022-09-02T10:26:05;24.40;32.20
2687;DHT22;1353;51.386;7.028;2022-09-02T10:28:53;24.50;32.00
2687;DHT22;1353;51.386;7.028;2022-09-02T10:31:30;26.90;29.20
2687;DHT22;1353;51.386;7.028;2022-09-02T10:34:07;25.30;28.00
2687;DHT22;1353;51.386;7.028;2022-09-02T10:36:51;27.40;25.90
2687;DHT22;1353;51.386;7.028;2022-09-02T10:39:35;25.30;25.40
2687;DHT22;1353;51.386;7.028;2022-09-02T10:42:11;24.50;24.30
2687;DHT22;1353;51.386;7.028;2022-09-02T10:44:47;24.70;24.20
2687;DHT22;1353;51.386;7.028;2022-09-02T10:47:21;25.80;24.60
2687;DHT22;1353;51.386;7.028;2022-09-02T10:50:04;24.50;23.00
2687;DHT22;1353;51.386;7.028;2022-09-02T10:52:51;25.10;24.20
2687;DHT22;1353;51.386;7.028;2022-09-02T10:55:25;24.50;23.80
2687;DHT22;1353;51.386;7.028;2022-09-02T10:57:58;24.10;23.40
2687;DHT22;1353;51.386;7.028;2022-09-02T11:00:28;23.90;23.50
2687;DHT22;1353;51.386;7.028;2022-09-02T11:03:05;24.20;23.50
2687;DHT22;1353;51.386;7.028;2022-09-02T11:05:42;24.50;24.20
2687;DHT22;1353;51.386;7.028;2022-09-02T11:08:12;23.90;24.80
2687;DHT22;1353;51.386;7.028;2022-09-02T11:10:48;23.60;24.70
2687;DHT22;1353;51.386;7.028;2022-09-02T11:13:23;23.80;25.10
2687;DHT22;1353;51.386;7.028;2022-09-02T11:15:56;24.00;25.30
2687;DHT22;1353;51.386;7.028;2022-09-02T11:18:34;23.90;25.80
2687;DHT22;1353;51.386;7.028;2022-09-02T11:21:04;23.90;25.40
2687;DHT22;1353;51.386;7.028;2022-09-02T11:23:38;23.70;25.50
2687;DHT22;1353;51.386;7.028;2022-09-02T11:26:12;24.00;25.30
2687;DHT22;1353;51.386;7.028;2022-09-02T11:28:47;24.10;26.20
2687;DHT22;1353;51.386;7.028;2022-09-02T11:31:23;23.90;25.20
2687;DHT22;1353;51.386;7.028;2022-09-02T11:33:54;24.10;24.70
2687;DHT22;1353;51.386;7.028;2022-09-02T11:36:23;24.10;24.40
2687;DHT22;1353;51.386;7.028;2022-09-02T11:38:53;24.70;24.60
2687;DHT22;1353;51.386;7.028;2022-09-02T11:41:27;24.70;22.90
2687;DHT22;1353;51.386;7.028;2022-09-02T11:44:02;25.70;22.20
2687;DHT22;1353;51.386;7.028;2022-09-02T11:46:43;25.90;21.70
2687;DHT22;1353;51.386;7.028;2022-09-02T11:49:36;24.50;20.70
2687;DHT22;1353;51.386;7.028;2022-09-02T11:52:20;24.80;20.90
2687;DHT22;1353;51.386;7.028;2022-09-02T11:54:57;24.80;21.10
2687;DHT22;1353;51.386;7.028;2022-09-02T11:57:26;24.20;21.40
2687;DHT22;1353;51.386;7.028;2022-09-02T12:00:10;24.10;21.30
2687;DHT22;1353;51.386;7.028;2022-09-02T12:02:40;24.80;21.20
2687;DHT22;1353;51.386;7.028;2022-09-02T12:08:10;25.20;21.20
2687;DHT22;1353;51.386;7.028;2022-09-02T12:10:59;24.70;20.80
2687;DHT22;1353;51.386;7.028;2022-09-02T12:13:35;25.30;20.20
2687;DHT22;1353;51.386;7.028;2022-09-02T12:19:27;29.10;16.60
2687;DHT22;1353;51.386;7.028;2022-09-02T12:22:31;27.10;15.60
2687;DHT22;1353;51.386;7.028;2022-09-02T12:25:00;25.70;17.20
2687;DHT22;1353;51.386;7.028;2022-09-02T12:27:32;26.50;16.90
2687;DHT22;1353;51.386;7.028;2022-09-02T12:30:03;25.90;17.30
2687;DHT22;1353;51.386;7.028;2022-09-02T12:33:06;26.60;17.50
2687;DHT22;1353;51.386;7.028;2022-09-02T12:35:52;25.80;16.90
2687;DHT22;1353;51.386;7.028;2022-09-02T12:38:28;25.30;18.10
2687;DHT22;1353;51.386;7.028;2022-09-02T12:41:08;24.90;19.20
2687;DHT22;1353;51.386;7.028;2022-09-02T12:43:51;26.00;18.80
2687;DHT22;1353;51.386;7.028;2022-09-02T12:46:26;26.00;17.30
2687;DHT22;1353;51.386;7.028;2022-09-02T12:48:58;25.20;16.10
2687;DHT22;1353;51.386;7.028;2022-09-02T12:51:52;25.30;17.40
2687;DHT22;1353;51.386;7.028;2022-09-02T12:54:23;25.40;16.50
2687;DHT22;1353;51.386;7.028;2022-09-02T12:56:51;25.50;15.50
2687;DHT22;1353;51.386;7.028;2022-09-02T12:59:27;24.90;16.70
2687;DHT22;1353;51.386;7.028;2022-09-02T13:02:05;25.40;17.50
2687;DHT22;1353;51.386;7.028;2022-09-02T13:04:39;25.40;16.70
2687;DHT22;1353;51.386;7.028;2022-09-02T13:10:39;25.50;16.40
2687;DHT22;1353;51.386;7.028;2022-09-02T13:16:22;26.70;15.30
2687;DHT22;1353;51.386;7.028;2022-09-02T13:22:14;25.10;15.90
2687;DHT22;1353;51.386;7.028;2022-09-02T13:25:32;24.70;16.90
2687;DHT22;1353;51.386;7.028;2022-09-02T13:28:34;24.30;17.40
2687;DHT22;1353;51.386;7.028;2022-09-02T13:31:12;24.50;17.90
2687;DHT22;1353;51.386;7.028;2022-09-02T13:33:44;23.80;18.10
2687;DHT22;1353;51.386;7.028;2022-09-02T13:36:22;24.40;18.50
2687;DHT22;1353;51.386;7.028;2022-09-02T13:38:50;24.20;18.70
2687;DHT22;1353;51.386;7.028;2022-09-02T13:41:27;24.40;18.30
2687;DHT22;1353;51.386;7.028;2022-09-02T13:44:05;24.80;18.40
2687;DHT22;1353;51.386;7.028;2022-09-02T13:46:32;24.20;17.60
2687;DHT22;1353;51.386;7.028;2022-09-02T13:49:00;24.00;17.60
2687;DHT22;1353;51.386;7.028;2022-09-02T13:51:27;23.90;17.70
2687;DHT22;1353;51.386;7.028;2022-09-02T13:53:57;24.40;18.20
2687;DHT22;1353;51.386;7.028;2022-09-02T13:56:27;24.60;18.00
2687;DHT22;1353;51.386;7.028;2022-09-02T13:58:56;24.30;18.10
2687;DHT22;1353;51.386;7.028;2022-09-02T14:01:27;23.90;17.90
2687;DHT22;1353;51.386;7.028;2022-09-02T14:03:55;23.90;18.10
2687;DHT22;1353;51.386;7.028;2022-09-02T14:06:27;24.10;18.30
2687;DHT22;1353;51.386;7.028;2022-09-02T14:08:56;24.20;17.40
2687;DHT22;1353;51.386;7.028;2022-09-02T14:11:25;24.40;17.60
2687;DHT22;1353;51.386;7.028;2022-09-02T14:13:54;24.20;17.20
2687;DHT22;1353;51.386;7.028;2022-09-02T14:16:27;24.10;17.90
2687;DHT22;1353;51.386;7.028;2022-09-02T14:19:10;24.20;17.40
2687;DHT22;1353;51.386;7.028;2022-09-02T14:21:46;24.50;17.40
2687;DHT22;1353;51.386;7.028;2022-09-02T14:24:15;24.50;17.10
2687;DHT22;1353;51.386;7.028;2022-09-02T14:26:45;24.70;17.20
2687;DHT22;1353;51.386;7.028;2022-09-02T14:29:14;24.60;16.10
2687;DHT22;1353;51.386;7.028;2022-09-02T14:31:42;25.30;16.10
2687;DHT22;1353;51.386;7.028;2022-09-02T14:34:30;25.20;16.60
2687;DHT22;1353;51.386;7.028;2022-09-02T14:36:58;24.80;15.80
2687;DHT22;1353;51.386;7.028;2022-09-02T14:39:25;24.90;16.20
2687;DHT22;1353;51.386;7.028;2022-09-02T14:41:54;24.80;15.90
2687;DHT22;1353;51.386;7.028;2022-09-02T14:44:23;25.20;16.30
2687;DHT22;1353;51.386;7.028;2022-09-02T14:46:55;24.90;16.40
2687;DHT22;1353;51.386;7.028;2022-09-02T14:49:25;24.90;16.80
2687;DHT22;1353;51.386;7.028;2022-09-02T14:51:54;24.70;16.60
2687;DHT22;1353;51.386;7.028;2022-09-02T14:54:37;24.90;16.30
2687;DHT22;1353;51.386;7.028;2022-09-02T14:57:05;24.70;16.70
2687;DHT22;1353;51.386;7.028;2022-09-02T14:59:44;24.70;16.00
2687;DHT22;1353;51.386;7.028;2022-09-02T15:02:23;24.40;16.20
2687;DHT22;1353;51.386;7.028;2022-09-02T15:04:55;24.50;16.10
2687;DHT22;1353;51.386;7.028;2022-09-02T15:07:22;24.40;16.20
2687;DHT22;1353;51.386;7.028;2022-09-02T15:09:51;24.60;15.90
2687;DHT22;1353;51.386;7.028;2022-09-02T15:12:19;24.40;15.60
2687;DHT22;1353;51.386;7.028;2022-09-02T15:14:49;24.80;15.90
2687;DHT22;1353;51.386;7.028;2022-09-02T15:17:16;24.50;16.00
2687;DHT22;1353;51.386;7.028;2022-09-02T15:19:43;24.30;16.10
2687;DHT22;1353;51.386;7.028;2022-09-02T15:22:10;24.60;16.20
2687;DHT22;1353;51.386;7.028;2022-09-02T15:24:37;24.70;16.60
2687;DHT22;1353;51.386;7.028;2022-09-02T15:27:05;24.40;16.30
2687;DHT22;1353;51.386;7.028;2022-09-02T15:29:32;24.60;16.40
2687;DHT22;1353;51.386;7.028;2022-09-02T15:31:58;24.40;16.10
2687;DHT22;1353;51.386;7.028;2022-09-02T15:34:27;24.70;16.50
2687;DHT22;1353;51.386;7.028;2022-09-02T15:36:54;24.70;16.10
2687;DHT22;1353;51.386;7.028;2022-09-02T15:39:22;24.50;17.00
2687;DHT22;1353;51.386;7.028;2022-09-02T15:41:48;24.90;17.00
2687;DHT22;1353;51.386;7.028;2022-09-02T15:44:17;25.20;17.00
2687;DHT22;1353;51.386;7.028;2022-09-02T15:46:44;24.70;15.90
2687;DHT22;1353;51.386;7.028;2022-09-02T15:49:12;24.60;16.30
2687;DHT22;1353;51.386;7.028;2022-09-02T15:51:42;24.60;16.70
2687;DHT22;1353;51.386;7.028;2022-09-02T15:54:12;24.40;16.40
2687;DHT22;1353;51.386;7.028;2022-09-02T15:56:40;24.60;16.50
2687;DHT22;1353;51.386;7.028;2022-09-02T15:59:09;24.80;17.10
2687;DHT22;1353;51.386;7.028;2022-09-02T16:01:40;24.70;17.00
2687;DHT22;1353;51.386;7.028;2022-09-02T16:04:09;24.50;16.80
2687;DHT22;1353;51.386;7.028;2022-09-02T16:06:39;24.40;16.90
2687;DHT22;1353;51.386;7.028;2022-09-02T16:09:07;24.10;16.80
2687;DHT22;1353;51.386;7.028;2022-09-02T16:11:36;24.20;17.10
2687;DHT22;1353;51.386;7.028;2022-09-02T16:14:03;24.30;17.60
2687;DHT22;1353;51.386;7.028;2022-09-02T16:16:30;24.10;17.50
2687;DHT22;1353;51.386;7.028;2022-09-02T16:18:58;24.10;17.70
2687;DHT22;1353;51.386;7.028;2022-09-02T16:21:26;24.00;17.90
2687;DHT22;1353;51.386;7.028;2022-09-02T16:23:53;23.90;18.00
2687;DHT22;1353;51.386;7.028;2022-09-02T16:26:22;23.80;18.10
2687;DHT22;1353;51.386;7.028;2022-09-02T16:28:51;23.70;18.10
2687;DHT22;1353;51.386;7.028;2022-09-02T16:31:19;23.70;18.20
2687;DHT22;1353;51.386;7.028;2022-09-02T16:33:51;23.70;18.40
2687;DHT22;1353;51.386;7.028;2022-09-02T16:36:19;23.70;18.50
2687;DHT22;1353;51.386;7.028;2022-09-02T16:38:46;23.70;18.70
2687;DHT22;1353;51.386;7.028;2022-09-02T16:41:23;23.70;18.90